Time;durP1;ratioP1;P1;durP2;ratioP2;P2;SDS_P1;SDS_P2;PMS_P1;PMS_P2;Temp;Humidity;BMP_temperature;BMP_pressure;BME280_temperature;BME280_humidity;BME280_pressure;Samples;Min_cycle;Max_cycle;Signal;HPM_P1;HPM_P2
2022/03/22 00:00:11;;;;;;;17.20;14.67;;;5.50;1.00;;;;;;6237033;28;20830;-55
2022/03/22 00:03:15;;;;;;;20.80;15.13;;;5.50;1.00;;;;;;6256819;28;20287;-56
2022/03/22 00:06:18;;;;;;;17.57;14.80;;;5.50;1.00;;;;;;6267553;28;20745;-55
2022/03/22 00:09:21;;;;;;;15.93;14.37;;;5.50;1.00;;;;;;6259001;28;20659;-56
2022/03/22 00:12:23;;;;;;;17.87;14.40;;;5.80;1.00;;;;;;6261300;28;20276;-55
2022/03/22 00:15:26;;;;;;;20.07;14.83;;;5.50;1.00;;;;;;6261787;28;20465;-55
2022/03/22 00:18:50;;;;;;;18.03;13.93;;;5.40;1.00;;;;;;6259751;28;20245;-54
2022/03/22 00:21:53;;;;;;;16.53;14.30;;;5.70;1.00;;;;;;6260653;28;20836;-54
2022/03/22 00:24:55;;;;;;;15.90;14.00;;;5.40;1.00;;;;;;6261178;28;20424;-55
2022/03/22 00:27:59;;;;;;;17.70;14.90;;;5.40;1.00;;;;;;6250277;28;20234;-55
2022/03/22 00:31:03;;;;;;;16.53;14.53;;;5.20;1.00;;;;;;6235918;28;20246;-54
2022/03/22 00:34:07;;;;;;;19.33;14.57;;;5.50;1.00;;;;;;6250991;28;20246;-55
2022/03/22 00:37:10;;;;;;;21.13;15.60;;;5.30;1.00;;;;;;6265722;28;20239;-55
2022/03/22 00:40:15;;;;;;;15.70;14.07;;;5.30;1.00;;;;;;6246541;28;20356;-55
2022/03/22 00:43:17;;;;;;;17.43;14.20;;;5.30;1.00;;;;;;6255120;28;20234;-55
2022/03/22 00:46:20;;;;;;;18.23;14.80;;;5.40;1.00;;;;;;6258077;28;20744;-56
2022/03/22 00:49:24;;;;;;;20.07;15.80;;;5.00;1.00;;;;;;6260514;28;20781;-55
2022/03/22 00:52:30;;;;;;;23.43;15.33;;;5.30;1.00;;;;;;6260212;28;20481;-55
2022/03/22 00:55:33;;;;;;;16.10;14.43;;;4.90;1.00;;;;;;6254238;28;20234;-55
2022/03/22 00:58:36;;;;;;;16.53;14.80;;;5.00;1.00;;;;;;6235202;28;20265;-54
2022/03/22 01:01:38;;;;;;;18.20;14.17;;;5.10;1.00;;;;;;6252998;28;20225;-55
2022/03/22 01:04:43;;;;;;;18.90;14.97;;;4.80;1.00;;;;;;6255069;28;20657;-55
2022/03/22 01:07:47;;;;;;;16.20;14.60;;;4.90;1.00;;;;;;6259416;28;20359;-54
2022/03/22 01:10:52;;;;;;;16.20;14.57;;;4.90;1.00;;;;;;6259868;28;20381;-56
2022/03/22 01:13:55;;;;;;;21.20;15.60;;;4.90;1.00;;;;;;6241428;28;20235;-55
2022/03/22 01:16:58;;;;;;;19.07;15.43;;;5.20;1.00;;;;;;6233614;28;20608;-56
2022/03/22 01:20:10;;;;;;;19.27;14.23;;;4.90;1.00;;;;;;6234591;28;20249;-54
2022/03/22 01:23:13;;;;;;;17.50;14.80;;;4.80;1.00;;;;;;6234522;28;20300;-55
2022/03/22 01:26:16;;;;;;;18.20;15.37;;;5.20;1.00;;;;;;6233857;28;20670;-55
2022/03/22 01:29:18;;;;;;;17.97;14.77;;;4.80;1.00;;;;;;6233876;28;20231;-54
2022/03/22 01:32:21;;;;;;;20.00;14.90;;;4.60;1.00;;;;;;6235382;28;20234;-54
2022/03/22 01:35:26;;;;;;;17.53;13.90;;;4.80;1.00;;;;;;6266700;28;20505;-55
2022/03/22 01:38:29;;;;;;;17.63;14.50;;;4.80;1.00;;;;;;6258360;28;20518;-55
2022/03/22 01:41:31;;;;;;;18.67;14.57;;;4.80;1.00;;;;;;6258220;28;20276;-55
2022/03/22 01:44:34;;;;;;;18.37;13.93;;;4.70;1.00;;;;;;6257671;28;20242;-55
2022/03/22 01:47:38;;;;;;;16.93;13.87;;;4.80;1.00;;;;;;6258730;28;20618;-56
2022/03/22 01:50:43;;;;;;;18.93;15.13;;;4.40;1.00;;;;;;6258822;28;20311;-56
2022/03/22 01:53:46;;;;;;;17.77;14.97;;;4.50;1.00;;;;;;6257231;28;20380;-54
2022/03/22 01:56:50;;;;;;;17.87;14.53;;;4.60;1.00;;;;;;6258536;28;20515;-55
2022/03/22 01:59:53;;;;;;;16.60;14.20;;;4.50;1.00;;;;;;6258731;28;20230;-54
2022/03/22 02:06:23;;;;;;;19.93;14.53;;;4.50;1.00;;;;;;6258967;28;20243;-55
2022/03/22 02:09:25;;;;;;;17.50;15.30;;;4.50;1.00;;;;;;6257808;28;20253;-55
2022/03/22 02:12:28;;;;;;;17.73;14.60;;;4.20;1.00;;;;;;6258483;28;20334;-55
2022/03/22 02:15:31;;;;;;;17.03;14.73;;;4.30;1.00;;;;;;6260138;28;20792;-54
2022/03/22 02:18:35;;;;;;;21.97;15.40;;;4.30;1.00;;;;;;6248830;28;20237;-55
2022/03/22 02:21:41;;;;;;;18.93;15.30;;;4.30;1.00;;;;;;6234865;28;20235;-55
2022/03/22 02:24:45;;;;;;;17.47;14.53;;;4.30;1.00;;;;;;6234352;28;20246;-55
2022/03/22 02:27:52;;;;;;;19.43;14.93;;;4.40;1.00;;;;;;6234793;28;20469;-55
2022/03/22 02:30:54;;;;;;;18.50;14.30;;;4.20;1.00;;;;;;6233369;28;20310;-55
2022/03/22 02:33:57;;;;;;;18.40;15.13;;;4.30;1.00;;;;;;6255316;28;20267;-55
2022/03/22 02:40:17;;;;;;;18.23;14.90;;;4.20;1.00;;;;;;6298659;27;20574;-55
2022/03/22 02:43:20;;;;;;;17.30;14.33;;;4.00;1.00;;;;;;6291626;28;20286;-55
2022/03/22 02:46:23;;;;;;;16.83;14.60;;;4.20;1.00;;;;;;6304370;28;20259;-54
2022/03/22 02:49:26;;;;;;;18.93;15.43;;;4.10;1.00;;;;;;6282185;28;20244;-56
2022/03/22 02:52:28;;;;;;;17.40;14.40;;;4.10;1.00;;;;;;6280377;28;20232;-54
2022/03/22 02:55:33;;;;;;;22.17;15.20;;;4.00;1.00;;;;;;6280710;28;20238;-55
2022/03/22 02:58:37;;;;;;;17.13;15.20;;;4.00;1.00;;;;;;6279820;28;20260;-55
2022/03/22 03:01:39;;;;;;;19.30;15.13;;;3.70;1.00;;;;;;6283534;28;20244;-55
2022/03/22 03:04:42;;;;;;;15.53;13.80;;;3.90;1.00;;;;;;6295648;28;20240;-54
2022/03/22 03:07:45;;;;;;;16.70;14.93;;;3.90;1.00;;;;;;6300874;28;20636;-56
2022/03/22 03:10:49;;;;;;;15.90;14.23;;;3.80;1.00;;;;;;6304720;28;20236;-55
2022/03/22 03:17:25;;;;;;;21.77;15.83;;;3.70;1.00;;;;;;6274658;28;20348;-55
2022/03/22 03:20:28;;;;;;;19.33;14.83;;;3.40;1.00;;;;;;6325273;27;20541;-54
2022/03/22 03:23:31;;;;;;;19.47;15.30;;;3.50;1.00;;;;;;6303374;28;20247;-56
2022/03/22 03:26:35;;;;;;;17.03;14.40;;;3.80;1.00;;;;;;6303705;28;20240;-55
2022/03/22 03:29:38;;;;;;;19.27;14.93;;;3.00;1.00;;;;;;6305628;28;20334;-55
2022/03/22 03:32:40;;;;;;;17.77;14.83;;;3.60;1.00;;;;;;6321523;27;20259;-54
2022/03/22 03:35:43;;;;;;;18.17;15.13;;;3.60;1.00;;;;;;6322172;27;20309;-55
2022/03/22 03:38:46;;;;;;;20.50;15.30;;;3.70;1.00;;;;;;6302943;28;20243;-55
2022/03/22 03:41:56;;;;;;;17.30;14.77;;;3.60;1.00;;;;;;6302246;28;20747;-55
2022/03/22 03:48:19;;;;;;;21.70;15.40;;;3.60;1.00;;;;;;6283982;28;20232;-55
2022/03/22 03:51:22;;;;;;;20.50;15.47;;;3.70;1.00;;;;;;6262578;28;20237;-54
2022/03/22 03:54:25;;;;;;;23.77;15.40;;;3.30;1.00;;;;;;6262363;28;20259;-55
2022/03/22 03:57:29;;;;;;;16.80;14.90;;;3.40;1.00;;;;;;6263291;28;20244;-54
2022/03/22 04:00:32;;;;;;;18.53;15.30;;;3.50;1.00;;;;;;6275461;28;20290;-56
2022/03/22 04:03:35;;;;;;;17.87;15.07;;;3.20;1.00;;;;;;6275064;28;20233;-55
2022/03/22 04:06:37;;;;;;;18.90;15.37;;;3.40;1.00;;;;;;6285710;28;20644;-54
2022/03/22 04:09:41;;;;;;;22.10;15.93;;;3.40;1.00;;;;;;6285869;28;20263;-54
2022/03/22 04:12:45;;;;;;;21.30;15.13;;;3.50;1.00;;;;;;6274661;28;20245;-55
2022/03/22 04:15:48;;;;;;;23.20;15.53;;;3.30;1.00;;;;;;6261437;28;20443;-56
2022/03/22 04:18:50;;;;;;;21.40;15.63;;;3.20;1.00;;;;;;6261174;28;20237;-55
2022/03/22 04:21:53;;;;;;;17.47;15.20;;;3.30;1.00;;;;;;6260700;28;20678;-55
2022/03/22 04:24:56;;;;;;;22.17;15.70;;;3.20;1.00;;;;;;6261329;28;20238;-55
2022/03/22 04:34:42;;;;;;;21.63;16.07;;;3.00;1.00;;;;;;6276044;28;20230;-55
2022/03/22 04:37:47;;;;;;;19.97;16.10;;;3.20;1.00;;;;;;6274213;28;20288;-53
2022/03/22 04:40:50;;;;;;;24.80;16.07;;;3.20;1.00;;;;;;6275720;28;20261;-55
2022/03/22 04:43:57;;;;;;;22.97;16.17;;;3.00;1.00;;;;;;6281133;28;20245;-54
2022/03/22 04:47:00;;;;;;;18.63;15.93;;;3.00;1.00;;;;;;6268950;28;21095;-55
2022/03/22 04:50:03;;;;;;;24.43;16.30;;;2.90;1.00;;;;;;6271845;28;20443;-54
2022/03/22 04:56:46;;;;;;;22.43;16.23;;;2.90;1.00;;;;;;6283842;28;20229;-55
2022/03/22 04:59:50;;;;;;;21.50;16.60;;;2.70;1.00;;;;;;6278014;28;20317;-54
2022/03/22 05:02:53;;;;;;;19.60;16.17;;;3.00;1.00;;;;;;6269187;28;20238;-55
2022/03/22 05:09:16;;;;;;;21.07;16.03;;;2.70;1.00;;;;;;6275720;28;20602;-56
2022/03/22 05:12:19;;;;;;;22.80;17.87;;;2.80;1.00;;;;;;6282251;28;20313;-54
2022/03/22 05:15:23;;;;;;;23.17;17.50;;;2.80;1.00;;;;;;6282583;28;20927;-55
2022/03/22 05:18:26;;;;;;;20.07;16.13;;;2.70;1.00;;;;;;6291412;28;20225;-55
2022/03/22 05:21:28;;;;;;;19.47;16.20;;;2.90;1.00;;;;;;6302968;28;20272;-54
2022/03/22 05:24:31;;;;;;;18.93;15.97;;;2.90;1.00;;;;;;6279215;28;20655;-55
2022/03/22 05:27:36;;;;;;;26.07;16.80;;;2.70;1.00;;;;;;6283022;28;20290;-54
2022/03/22 05:30:40;;;;;;;21.33;16.50;;;2.70;1.00;;;;;;6282053;28;20532;-55
2022/03/22 05:33:43;;;;;;;19.33;15.50;;;2.90;1.00;;;;;;6273472;28;20233;-54
2022/03/22 05:36:45;;;;;;;21.67;16.67;;;2.60;1.00;;;;;;6272914;28;20237;-55
2022/03/22 05:39:48;;;;;;;22.07;16.63;;;3.00;1.00;;;;;;6272439;28;20241;-55
2022/03/22 05:42:51;;;;;;;23.67;17.47;;;3.00;1.00;;;;;;6282165;28;20225;-55
2022/03/22 05:45:56;;;;;;;20.40;15.77;;;2.90;1.00;;;;;;6277989;28;20241;-55
2022/03/22 05:48:59;;;;;;;20.50;16.70;;;3.10;1.00;;;;;;6275018;28;20229;-55
2022/03/22 05:52:01;;;;;;;23.50;17.17;;;3.00;1.00;;;;;;6280933;28;20282;-57
2022/03/22 05:55:05;;;;;;;21.60;16.77;;;3.10;1.00;;;;;;6281974;28;20233;-54
2022/03/22 05:58:09;;;;;;;23.33;17.93;;;2.80;1.00;;;;;;6276876;28;20260;-55
2022/03/22 06:01:13;;;;;;;21.27;16.80;;;3.00;1.00;;;;;;6283353;28;20241;-54
2022/03/22 06:04:16;;;;;;;27.03;16.63;;;2.90;1.00;;;;;;6278596;28;20702;-56
2022/03/22 06:07:20;;;;;;;22.70;17.73;;;3.00;1.00;;;;;;6282174;28;20732;-54
2022/03/22 06:10:23;;;;;;;22.33;16.63;;;2.90;1.00;;;;;;6277727;28;20248;-55
2022/03/22 06:13:25;;;;;;;23.70;18.07;;;3.30;1.00;;;;;;6281178;28;20340;-55
2022/03/22 06:16:29;;;;;;;24.77;17.40;;;3.20;1.00;;;;;;6284326;28;20859;-55
2022/03/22 06:19:32;;;;;;;22.60;17.40;;;2.90;1.00;;;;;;6278072;28;20241;-56
2022/03/22 06:22:37;;;;;;;24.73;17.73;;;3.40;1.00;;;;;;6283022;28;20238;-54
2022/03/22 06:25:42;;;;;;;22.00;18.00;;;3.10;1.00;;;;;;6284460;28;20236;-55
2022/03/22 06:28:45;;;;;;;21.37;16.53;;;3.60;1.00;;;;;;6279748;28;20257;-54
2022/03/22 06:31:49;;;;;;;19.03;16.93;;;3.60;1.00;;;;;;6274649;28;20229;-53
2022/03/22 06:34:52;;;;;;;25.33;17.63;;;3.60;1.00;;;;;;6284232;28;20324;-55
2022/03/22 06:37:55;;;;;;;21.17;17.93;;;3.90;1.00;;;;;;6275259;28;20237;-56
2022/03/22 06:40:58;;;;;;;24.67;17.77;;;3.80;1.00;;;;;;6283949;28;20237;-56
2022/03/22 06:44:01;;;;;;;25.50;19.03;;;4.00;1.00;;;;;;6281448;28;20327;-54
2022/03/22 06:47:05;;;;;;;20.23;17.20;;;3.90;1.00;;;;;;6270432;28;20229;-53
2022/03/22 06:50:10;;;;;;;23.03;18.13;;;4.20;1.00;;;;;;6275196;28;20229;-55
2022/03/22 06:53:14;;;;;;;26.77;19.23;;;4.30;1.00;;;;;;6281070;28;20244;-53
2022/03/22 06:56:17;;;;;;;23.67;18.63;;;4.70;1.00;;;;;;6277168;28;20233;-55
2022/03/22 06:59:20;;;;;;;21.40;18.00;;;5.00;1.00;;;;;;6283081;28;20243;-55
2022/03/22 07:02:24;;;;;;;23.83;17.67;;;5.40;1.00;;;;;;6281345;28;20276;-55
2022/03/22 07:05:27;;;;;;;25.37;18.07;;;5.40;1.00;;;;;;6282240;28;20349;-55
2022/03/22 07:08:30;;;;;;;23.53;18.07;;;5.20;1.00;;;;;;6286443;28;20259;-54
2022/03/22 07:11:50;;;;;;;25.17;18.27;;;5.80;1.00;;;;;;6287624;28;20418;-55
2022/03/22 07:14:53;;;;;;;25.80;18.40;;;7.00;1.00;;;;;;6280077;28;20253;-55
2022/03/22 07:18:00;;;;;;;24.23;18.40;;;7.40;1.00;;;;;;6280276;28;20783;-56
2022/03/22 07:21:04;;;;;;;26.60;18.33;;;7.10;1.00;;;;;;6279510;28;20725;-54
2022/03/22 07:24:08;;;;;;;23.40;17.40;;;6.90;1.00;;;;;;6273923;28;20229;-56
2022/03/22 07:27:11;;;;;;;24.87;18.60;;;7.20;1.00;;;;;;6286349;28;20229;-55
2022/03/22 07:30:14;;;;;;;20.50;17.63;;;7.20;1.00;;;;;;6284298;28;20717;-55
2022/03/22 07:33:18;;;;;;;24.43;18.47;;;7.20;1.00;;;;;;6276189;28;20241;-54
2022/03/22 07:36:21;;;;;;;30.13;18.50;;;7.10;1.00;;;;;;6284396;28;20260;-54
2022/03/22 07:39:44;;;;;;;22.90;18.20;;;7.60;1.00;;;;;;6285954;28;20230;-54
2022/03/22 07:42:48;;;;;;;23.90;17.93;;;7.30;1.00;;;;;;6284451;28;20625;-54
2022/03/22 07:45:52;;;;;;;23.50;18.47;;;7.30;1.00;;;;;;6286414;28;20700;-55
2022/03/22 07:52:57;;;;;;;21.30;17.13;;;7.20;1.00;;;;;;6286687;28;20240;-54
2022/03/22 07:55:40;;;;;;;32.80;19.03;;;7.20;1.00;;;;;;6287006;28;20728;-55
2022/03/22 07:58:43;;;;;;;26.47;16.33;;;7.20;1.00;;;;;;6286495;28;20764;-55
2022/03/22 08:01:46;;;;;;;21.47;16.77;;;7.20;1.00;;;;;;6282876;28;20581;-54
2022/03/22 08:04:51;;;;;;;20.20;15.93;;;7.30;1.00;;;;;;6292850;28;20525;-55
2022/03/22 08:07:54;;;;;;;20.30;16.33;;;7.50;1.00;;;;;;6272193;28;20260;-56
2022/03/22 08:11:06;;;;;;;23.33;15.87;;;7.50;1.00;;;;;;6285021;28;20237;-54
2022/03/22 08:14:09;;;;;;;19.57;14.47;;;7.80;1.00;;;;;;6284298;28;20299;-55
2022/03/22 08:17:12;;;;;;;17.67;14.90;;;7.90;1.00;;;;;;6281279;28;20299;-54
2022/03/22 08:20:16;;;;;;;18.83;15.33;;;8.10;1.00;;;;;;6284770;28;20328;-55
2022/03/22 08:23:19;;;;;;;18.23;15.70;;;8.20;1.00;;;;;;6284367;28;20578;-54
2022/03/22 08:26:22;;;;;;;30.53;15.03;;;8.50;1.00;;;;;;6279634;28;20261;-55
2022/03/22 08:29:25;;;;;;;17.30;15.33;;;8.60;1.00;;;;;;6284553;28;20371;-54
2022/03/22 08:32:28;;;;;;;17.60;15.33;;;8.70;1.00;;;;;;6277980;28;20312;-54
2022/03/22 08:35:32;;;;;;;17.60;14.20;;;9.00;1.00;;;;;;6283133;28;20494;-55
2022/03/22 08:38:35;;;;;;;16.23;14.37;;;9.10;1.00;;;;;;6284119;28;20233;-56
2022/03/22 08:41:39;;;;;;;18.13;15.07;;;9.40;1.00;;;;;;6284322;28;20234;-55
2022/03/22 08:44:44;;;;;;;19.83;15.93;;;9.60;1.00;;;;;;6282725;28;20479;-55
2022/03/22 08:47:48;;;;;;;17.20;13.90;;;9.70;1.00;;;;;;6281002;28;20249;-54
2022/03/22 08:50:53;;;;;;;18.00;13.60;;;9.80;1.00;;;;;;6290122;28;20281;-54
2022/03/22 08:53:56;;;;;;;14.90;13.30;;;9.90;1.00;;;;;;6306991;28;20232;-53
2022/03/22 08:56:58;;;;;;;16.07;13.20;;;10.10;1.00;;;;;;6307893;28;20229;-56
2022/03/22 09:00:05;;;;;;;15.13;13.40;;;10.20;1.00;;;;;;6308266;28;20228;-55
2022/03/22 09:03:10;;;;;;;16.20;13.33;;;10.20;1.00;;;;;;6308187;28;20309;-55
2022/03/22 09:06:16;;;;;;;14.87;13.20;;;10.40;1.00;;;;;;6308543;28;20378;-57
2022/03/22 09:09:19;;;;;;;16.50;13.67;;;10.50;1.00;;;;;;6299669;28;20235;-53
2022/03/22 09:12:22;;;;;;;17.27;13.80;;;10.60;1.00;;;;;;6308567;28;20232;-54
2022/03/22 09:15:28;;;;;;;16.17;13.50;;;10.80;1.00;;;;;;6308580;28;20255;-55
2022/03/22 09:18:31;;;;;;;15.40;12.93;;;10.90;1.00;;;;;;6300258;28;20674;-53
2022/03/22 09:21:36;;;;;;;13.87;12.47;;;11.10;1.00;;;;;;6307705;28;21167;-56
2022/03/22 09:24:39;;;;;;;15.97;13.97;;;11.20;1.00;;;;;;6303642;28;20260;-54
2022/03/22 09:27:42;;;;;;;14.17;12.73;;;11.40;1.00;;;;;;6302770;28;20325;-55
2022/03/22 09:30:48;;;;;;;14.57;13.20;;;11.50;1.00;;;;;;6301956;28;20562;-54
2022/03/22 09:33:51;;;;;;;14.43;13.07;;;11.60;1.00;;;;;;6307203;28;20228;-54
2022/03/22 09:36:55;;;;;;;14.43;12.93;;;11.70;1.00;;;;;;6309194;28;20390;-55
2022/03/22 09:39:58;;;;;;;16.33;12.40;;;11.80;1.00;;;;;;6308300;28;20309;-55
2022/03/22 09:43:01;;;;;;;13.37;12.00;;;11.90;1.00;;;;;;6308461;28;20338;-54
2022/03/22 09:46:05;;;;;;;17.30;12.57;;;12.00;1.00;;;;;;6307959;28;20240;-56
2022/03/22 09:49:09;;;;;;;13.80;12.40;;;12.10;1.00;;;;;;6302316;28;20240;-55
2022/03/22 09:52:14;;;;;;;14.37;13.07;;;12.20;1.00;;;;;;6307392;28;20333;-56
2022/03/22 09:55:17;;;;;;;13.20;11.83;;;12.30;1.00;;;;;;6305867;28;20863;-56
2022/03/22 09:58:20;;;;;;;14.30;12.60;;;12.30;1.00;;;;;;6301425;28;20256;-56
2022/03/22 10:01:23;;;;;;;13.60;12.20;;;12.40;1.00;;;;;;6307611;28;20243;-56
2022/03/22 10:04:37;;;;;;;16.37;12.63;;;12.70;1.00;;;;;;6297899;28;20239;-54
2022/03/22 10:07:41;;;;;;;16.37;12.20;;;12.70;1.00;;;;;;6304628;28;20752;-56
2022/03/22 10:10:53;;;;;;;15.00;11.70;;;12.80;1.00;;;;;;6305826;28;20270;-56
2022/03/22 10:13:57;;;;;;;14.37;12.63;;;12.80;1.00;;;;;;6304973;28;20236;-56
2022/03/22 10:17:07;;;;;;;13.30;11.90;;;12.90;1.00;;;;;;6302848;28;20343;-55
2022/03/22 10:20:21;;;;;;;13.53;11.27;;;13.10;1.00;;;;;;6303718;28;20326;-55
2022/03/22 10:23:25;;;;;;;13.40;12.00;;;13.20;1.00;;;;;;6307065;28;20330;-54
2022/03/22 10:26:34;;;;;;;13.20;11.70;;;13.20;1.00;;;;;;6306262;28;20362;-55
2022/03/22 10:29:44;;;;;;;14.73;13.23;;;13.20;1.00;;;;;;6303721;28;20749;-56
2022/03/22 10:32:51;;;;;;;16.50;11.80;;;13.50;1.00;;;;;;6293850;28;20520;-54
2022/03/22 10:35:54;;;;;;;13.30;11.90;;;13.60;1.00;;;;;;6306643;28;20233;-55
2022/03/22 10:39:00;;;;;;;18.63;12.50;;;13.70;1.00;;;;;;6304195;28;20228;-55
2022/03/22 10:42:08;;;;;;;14.50;13.00;;;13.90;1.00;;;;;;6305825;28;20260;-55
2022/03/22 10:45:11;;;;;;;17.33;12.53;;;14.00;1.00;;;;;;6306217;28;20237;-56
2022/03/22 10:48:18;;;;;;;16.03;12.47;;;14.00;1.00;;;;;;6306830;28;20376;-56
2022/03/22 10:51:20;;;;;;;19.90;12.87;;;14.30;1.00;;;;;;6307372;28;20255;-56
2022/03/22 10:54:24;;;;;;;13.93;12.53;;;14.40;1.00;;;;;;6298200;28;20436;-55
2022/03/22 10:57:32;;;;;;;13.67;12.27;;;14.80;1.00;;;;;;6307811;28;20240;-54
2022/03/22 11:00:36;;;;;;;13.07;11.77;;;14.90;1.00;;;;;;6308850;28;20736;-55
2022/03/22 11:03:40;;;;;;;11.90;10.80;;;15.10;1.00;;;;;;6311329;28;20822;-55
2022/03/22 11:06:46;;;;;;;11.77;10.60;;;15.00;1.00;;;;;;6311237;28;20709;-55
2022/03/22 11:09:52;;;;;;;11.93;10.53;;;15.20;1.00;;;;;;6308568;28;20271;-55
2022/03/22 11:12:54;;;;;;;11.67;10.63;;;14.90;1.00;;;;;;6310035;28;20705;-56
2022/03/22 11:15:59;;;;;;;10.87;9.97;;;15.10;1.00;;;;;;6312579;28;20765;-56
2022/03/22 11:19:04;;;;;;;11.23;10.33;;;15.20;1.00;;;;;;6305930;28;20543;-55
2022/03/22 11:22:07;;;;;;;11.97;10.87;;;15.30;1.00;;;;;;6311815;28;20390;-56
2022/03/22 11:25:13;;;;;;;11.53;10.43;;;15.10;1.00;;;;;;6290866;28;20233;-55
2022/03/22 11:28:20;;;;;;;11.47;10.20;;;15.30;1.00;;;;;;6308007;28;20326;-56
2022/03/22 11:31:26;;;;;;;12.23;10.77;;;15.40;1.00;;;;;;6310720;28;20312;-56
2022/03/22 11:34:30;;;;;;;11.60;10.60;;;15.50;1.00;;;;;;6310297;28;20296;-57
2022/03/22 11:37:34;;;;;;;12.77;10.07;;;15.40;1.00;;;;;;6310268;28;20699;-56
2022/03/22 11:44:09;;;;;;;11.57;10.43;;;15.70;1.00;;;;;;6311224;28;20438;-56
2022/03/22 11:47:14;;;;;;;11.73;10.67;;;16.00;1.00;;;;;;6307238;28;20228;-56
2022/03/22 11:50:20;;;;;;;11.50;10.40;;;16.10;1.00;;;;;;6311032;28;20242;-56
2022/03/22 11:53:22;;;;;;;10.57;9.57;;;16.30;1.00;;;;;;6310181;28;20837;-57
2022/03/22 11:56:28;;;;;;;12.67;11.37;;;16.40;1.00;;;;;;6310675;28;20353;-57
2022/03/22 11:59:41;;;;;;;11.47;10.33;;;16.40;1.00;;;;;;6309918;28;20235;-57
2022/03/22 12:02:47;;;;;;;18.27;11.30;;;16.40;1.00;;;;;;6306226;28;20302;-56
2022/03/22 12:05:52;;;;;;;11.23;10.27;;;16.30;1.00;;;;;;6305825;28;20294;-57
2022/03/22 12:08:54;;;;;;;12.60;11.00;;;16.50;1.00;;;;;;6309330;28;20252;-56
2022/03/22 12:12:00;;;;;;;16.77;10.77;;;16.50;1.00;;;;;;6307001;28;20236;-56
2022/03/22 12:15:06;;;;;;;11.47;10.37;;;16.50;1.00;;;;;;6310893;28;20523;-56
2022/03/22 12:18:09;;;;;;;11.33;10.40;;;16.80;1.00;;;;;;6309437;28;20319;-56
2022/03/22 12:21:19;;;;;;;14.13;10.10;;;16.90;1.00;;;;;;6307281;28;20381;-57
2022/03/22 12:24:23;;;;;;;10.37;9.40;;;17.10;1.00;;;;;;6306853;28;20310;-54
2022/03/22 12:27:27;;;;;;;11.00;9.47;;;17.10;1.00;;;;;;6305145;28;20286;-56
2022/03/22 12:30:32;;;;;;;10.73;9.17;;;17.30;1.00;;;;;;6304730;28;20271;-54
2022/03/22 12:33:37;;;;;;;11.93;9.83;;;17.50;1.00;;;;;;6304231;28;20277;-55
2022/03/22 12:36:40;;;;;;;9.67;8.60;;;17.60;1.00;;;;;;6307640;28;20378;-54
2022/03/22 12:39:45;;;;;;;9.60;8.60;;;17.60;1.00;;;;;;6308034;28;20323;-56
2022/03/22 12:43:02;;;;;;;9.57;8.67;;;17.60;1.00;;;;;;6302332;28;20841;-55
2022/03/22 12:46:06;;;;;;;9.73;8.87;;;17.50;1.00;;;;;;6306354;28;20232;-56
2022/03/22 12:49:09;;;;;;;8.73;7.93;;;17.50;1.00;;;;;;6309001;28;20224;-55
2022/03/22 12:52:12;;;;;;;8.70;8.00;;;17.60;1.00;;;;;;6306839;28;20256;-55
2022/03/22 12:55:17;;;;;;;7.93;7.23;;;17.80;1.00;;;;;;6297524;28;20773;-55
2022/03/22 12:58:28;;;;;;;12.50;8.77;;;17.90;1.00;;;;;;6303005;28;20335;-57
2022/03/22 13:01:38;;;;;;;9.00;8.20;;;18.00;1.00;;;;;;6307075;28;20961;-57
2022/03/22 13:04:46;;;;;;;9.43;8.63;;;17.90;1.00;;;;;;6305393;28;20275;-57
2022/03/22 13:07:49;;;;;;;9.03;8.40;;;17.90;1.00;;;;;;6301310;28;20558;-57
2022/03/22 13:17:41;;;;;;;9.87;7.80;;;17.90;1.00;;;;;;6307955;28;20229;-56
2022/03/22 13:20:44;;;;;;;8.93;8.17;;;18.00;1.00;;;;;;6297961;28;20225;-56
2022/03/22 13:23:47;;;;;;;9.47;8.70;;;18.00;1.00;;;;;;6305266;28;20225;-57
2022/03/22 13:26:54;;;;;;;8.60;8.00;;;18.00;1.00;;;;;;6307833;28;20448;-57
2022/03/22 13:30:00;;;;;;;9.10;8.27;;;17.80;1.00;;;;;;6304510;28;20477;-56
2022/03/22 13:33:11;;;;;;;8.23;7.47;;;17.80;1.00;;;;;;6299447;28;20685;-57
2022/03/22 13:36:18;;;;;;;7.30;6.73;;;17.80;1.00;;;;;;6305885;28;20466;-56
2022/03/22 13:39:24;;;;;;;8.37;7.67;;;18.00;1.00;;;;;;6303102;28;20323;-57
2022/03/22 13:42:27;;;;;;;11.20;8.40;;;17.80;1.00;;;;;;6307152;28;20229;-57
2022/03/22 13:45:31;;;;;;;9.13;8.30;;;17.80;1.00;;;;;;6292328;28;20741;-56
2022/03/22 13:48:43;;;;;;;9.63;8.70;;;17.90;1.00;;;;;;6307613;28;20350;-55
2022/03/22 13:51:47;;;;;;;9.17;8.47;;;17.90;1.00;;;;;;6304515;28;20327;-55
2022/03/22 13:54:53;;;;;;;9.57;8.67;;;17.80;1.00;;;;;;6307896;28;20245;-56
2022/03/22 13:58:01;;;;;;;9.17;8.47;;;17.90;1.00;;;;;;6306589;28;20716;-56
2022/03/22 14:01:26;;;;;;;9.60;8.80;;;18.00;1.00;;;;;;6303898;28;20730;-56
2022/03/22 14:04:29;;;;;;;9.83;9.00;;;17.90;1.00;;;;;;6298750;28;20244;-58
2022/03/22 14:07:32;;;;;;;9.47;8.40;;;17.90;1.00;;;;;;6294724;28;20722;-55
2022/03/22 14:10:38;;;;;;;9.40;8.60;;;18.00;1.00;;;;;;6306190;28;20224;-57
2022/03/22 14:13:41;;;;;;;10.00;9.13;;;17.90;1.00;;;;;;6307274;28;20323;-58
2022/03/22 14:16:45;;;;;;;10.13;9.43;;;18.00;1.00;;;;;;6306979;28;20282;-57
2022/03/22 14:19:48;;;;;;;10.30;9.30;;;18.10;1.00;;;;;;6302738;28;20323;-56
2022/03/22 14:22:53;;;;;;;10.07;9.20;;;18.20;1.00;;;;;;6307772;28;20263;-56
2022/03/22 14:25:56;;;;;;;10.20;9.17;;;18.20;1.00;;;;;;6303750;28;20323;-55
2022/03/22 14:28:59;;;;;;;16.53;9.07;;;18.20;1.00;;;;;;6305427;28;20291;-57
2022/03/22 14:32:04;;;;;;;9.93;9.03;;;18.30;1.00;;;;;;6306648;28;20316;-57
2022/03/22 14:38:29;;;;;;;10.03;9.10;;;18.20;1.00;;;;;;6305786;28;20237;-56
2022/03/22 14:41:33;;;;;;;9.83;8.83;;;18.20;1.00;;;;;;6307598;28;20722;-57
2022/03/22 14:44:37;;;;;;;10.17;9.37;;;18.20;1.00;;;;;;6302402;28;20239;-57
2022/03/22 14:47:42;;;;;;;9.97;9.07;;;18.00;1.00;;;;;;6300435;28;20537;-55
2022/03/22 14:50:44;;;;;;;12.43;9.63;;;18.10;1.00;;;;;;6307493;28;20307;-56
2022/03/22 14:54:04;;;;;;;10.07;9.17;;;18.20;1.00;;;;;;6304408;28;20465;-56
2022/03/22 15:00:27;;;;;;;10.87;9.23;;;18.30;1.00;;;;;;6302187;28;20229;-56
2022/03/22 15:03:32;;;;;;;11.37;9.40;;;18.20;1.00;;;;;;6305434;28;20554;-55
2022/03/22 15:06:36;;;;;;;10.53;9.40;;;18.30;1.00;;;;;;6304298;28;20247;-56
2022/03/22 15:09:39;;;;;;;14.47;10.60;;;18.30;1.00;;;;;;6306765;28;20242;-57
2022/03/22 15:12:42;;;;;;;10.13;9.13;;;18.30;1.00;;;;;;6300944;28;20233;-57
2022/03/22 15:15:45;;;;;;;10.83;9.20;;;18.30;1.00;;;;;;6306964;28;20240;-57
2022/03/22 15:18:49;;;;;;;10.10;9.27;;;18.30;1.00;;;;;;6297716;28;20672;-57
2022/03/22 15:21:53;;;;;;;11.03;9.63;;;18.20;1.00;;;;;;6307139;28;20231;-56
2022/03/22 15:24:55;;;;;;;12.20;9.47;;;18.10;1.00;;;;;;6290735;28;20229;-55
2022/03/22 15:27:58;;;;;;;17.37;9.60;;;17.90;1.00;;;;;;6311320;28;20549;-56
2022/03/22 15:31:01;;;;;;;11.40;8.93;;;17.70;1.00;;;;;;6307641;28;20650;-57
2022/03/22 15:34:05;;;;;;;8.60;7.90;;;17.70;1.00;;;;;;6300830;28;20225;-55
2022/03/22 15:37:08;;;;;;;11.73;8.00;;;17.50;1.00;;;;;;6305408;28;20350;-56
2022/03/22 15:40:12;;;;;;;15.13;8.67;;;17.30;1.00;;;;;;6306745;28;20463;-57
2022/03/22 15:43:17;;;;;;;8.90;8.00;;;17.20;1.00;;;;;;6298822;28;20234;-56
2022/03/22 15:46:20;;;;;;;8.23;7.63;;;17.10;1.00;;;;;;6301659;28;20267;-56
2022/03/22 15:49:24;;;;;;;8.87;8.00;;;16.90;1.00;;;;;;6309202;28;20319;-56
2022/03/22 15:52:26;;;;;;;8.80;8.10;;;16.90;1.00;;;;;;6311405;28;20395;-56
2022/03/22 15:55:30;;;;;;;11.07;9.13;;;16.90;1.00;;;;;;6308382;28;20244;-56
2022/03/22 15:58:33;;;;;;;10.20;8.77;;;16.70;1.00;;;;;;6305697;28;20289;-56
2022/03/22 16:01:35;;;;;;;9.30;8.50;;;16.60;1.00;;;;;;6311608;28;20307;-54
2022/03/22 16:04:40;;;;;;;8.67;7.90;;;16.50;1.00;;;;;;6310024;28;20260;-56
2022/03/22 16:07:43;;;;;;;9.30;8.27;;;16.40;1.00;;;;;;6305327;28;20225;-55
2022/03/22 16:10:45;;;;;;;9.03;8.23;;;16.30;1.00;;;;;;6309834;28;20251;-55
2022/03/22 16:13:48;;;;;;;10.10;9.20;;;16.20;1.00;;;;;;6309244;28;20221;-55
2022/03/22 16:16:54;;;;;;;9.77;8.77;;;16.10;1.00;;;;;;6310711;28;20693;-57
2022/03/22 16:20:01;;;;;;;8.20;7.60;;;16.00;1.00;;;;;;6310823;28;20320;-57
2022/03/22 16:23:04;;;;;;;12.47;8.27;;;15.90;1.00;;;;;;6309727;28;20234;-55
2022/03/22 16:26:08;;;;;;;12.53;7.83;;;15.80;1.00;;;;;;6309566;28;20240;-55
2022/03/22 16:29:12;;;;;;;9.50;7.70;;;15.70;1.00;;;;;;6309297;28;20240;-54
2022/03/22 16:32:14;;;;;;;8.97;8.07;;;15.60;1.00;;;;;;6309239;28;20232;-55
2022/03/22 16:41:58;;;;;;;7.97;7.27;;;15.40;1.00;;;;;;6307685;28;20495;-54
2022/03/22 16:45:00;;;;;;;8.33;7.73;;;15.30;1.00;;;;;;6310203;28;20446;-55
2022/03/22 16:48:03;;;;;;;10.27;8.37;;;15.20;1.00;;;;;;6307579;28;20621;-54
2022/03/22 16:51:08;;;;;;;11.63;8.23;;;15.10;1.00;;;;;;6303487;28;20707;-55